CheckWX is a tool to help pilots better visualize weather data.  It is not intended as a substitute for an official pre-flight weather briefing.

18:17:59 UTC

KRCM METAR
Skyhaven Airport
Warrensburg, Missouri, USA
Current

23 mins ago

KRCM 171755Z AUTO 25011KT 10SM OVC018 M02/M06 A2991 RMK AO2
Observed
Feb-17 @ 17:55 UTC
Wind
  • 250° at 11 KTS
Visibility
10 SM
Flight Rules
MVFR
Cloud Levels
  • Overcast at 1,800' AGL
Temperature
-2°C / 28°F
Dewpoint
-6°C / 21°F
Humidity
74%
Altimeter
29.91" Hg
Pressure
1012.92 hPa
Previous

43 mins ago

KRCM 171735Z AUTO 25008KT 10SM OVC018 M02/M06 A2990 RMK AO2
Observed
Feb-17 @ 17:35 UTC
Wind
  • 250° at 8 KTS
Visibility
10 SM
Flight Rules
MVFR
Cloud Levels
  • Overcast at 1,800' AGL
Temperature
-2°C / 28°F
Dewpoint
-6°C / 21°F
Humidity
74%
Altimeter
29.9" Hg
Pressure
1012.52 hPa
Previous

1 hour ago

KRCM 171715Z AUTO 28010G15KT 10SM OVC018 M02/M07 A2990 RMK AO2
Observed
Feb-17 @ 17:15 UTC
Wind
  • 280° at 10 KTS
  • Gusting to 15 KTS
Visibility
10 SM
Flight Rules
MVFR
Cloud Levels
  • Overcast at 1,800' AGL
Temperature
-2°C / 28°F
Dewpoint
-7°C / 19°F
Humidity
69%
Altimeter
29.9" Hg
Pressure
1012.52 hPa